Time;durP1;ratioP1;P1;durP2;ratioP2;P2;SDS_P1;SDS_P2;PMS_P1;PMS_P2;Temp;Humidity;BMP_temperature;BMP_pressure;BME280_temperature;BME280_humidity;BME280_pressure;Samples;Min_cycle;Max_cycle;Signal;HPM_P1;HPM_P2
2022/07/16 00:03:19;;;;;;;;;;;;;;;23.87;71.54;153658.70;1716994;83;20208;-64
2022/07/16 00:05:46;;;;;;;;;;;;;;;23.85;71.70;153653.42;1717142;83;20212;-63
2022/07/16 00:08:14;;;;;;;;;;;;;;;23.85;71.48;153652.14;1717179;83;20458;-64
2022/07/16 00:10:41;;;;;;;;;;;;;;;23.86;71.66;153654.75;1721804;82;21244;-64
2022/07/16 00:13:08;;;;;;;;;;;;;;;23.84;71.96;153649.53;1732462;82;20213;-63
2022/07/16 00:15:36;;;;;;;;;;;;;;;23.81;72.10;153642.97;1732504;82;20160;-63
2022/07/16 00:20:48;;;;;;;;;;;;;;;23.80;71.84;153639.06;1702800;84;20196;-64
2022/07/16 00:23:15;;;;;;;;;;;;;;;23.80;71.68;153639.06;1702654;83;21335;-63
2022/07/16 00:25:42;;;;;;;;;;;;;;;23.79;71.52;153636.45;1702605;84;20136;-63
2022/07/16 00:28:08;;;;;;;;;;;;;;;23.80;71.37;153640.34;1717748;83;20267;-63
2022/07/16 00:30:35;;;;;;;;;;;;;;;23.82;71.20;153645.58;1702740;83;20169;-63
2022/07/16 00:33:02;;;;;;;;;;;;;;;23.84;70.93;153649.53;1709180;84;20208;-62
2022/07/16 00:35:29;;;;;;;;;;;;;;;23.91;70.60;153666.56;1709633;84;21756;-62
2022/07/16 00:37:55;;;;;;;;;;;;;;;23.96;70.07;153679.64;1709506;84;20165;-62
2022/07/16 00:40:23;;;;;;;;;;;;;;;23.99;69.81;153688.81;1709677;84;20173;-62
2022/07/16 00:42:49;;;;;;;;;;;;;;;24.01;69.60;153692.72;1709541;84;20479;-63
2022/07/16 00:45:17;;;;;;;;;;;;;;;24.00;69.38;153691.44;1684098;84;36767;-64
2022/07/16 00:47:44;;;;;;;;;;;;;;;24.03;69.12;153698.00;1709424;84;21127;-64
2022/07/16 00:50:12;;;;;;;;;;;;;;;24.02;69.26;153695.38;1709336;84;20497;-63
2022/07/16 00:52:39;;;;;;;;;;;;;;;24.00;68.98;153690.09;1709691;84;20148;-63
2022/07/16 00:55:07;;;;;;;;;;;;;;;23.97;68.85;153683.53;1709339;83;21124;-64
2022/07/16 00:57:34;;;;;;;;;;;;;;;23.93;68.75;153673.08;1710052;84;20157;-62
2022/07/16 01:00:00;;;;;;;;;;;;;;;23.88;68.86;153661.33;1709734;84;21948;-62
2022/07/16 01:02:27;;;;;;;;;;;;;;;23.84;69.08;153650.81;1709753;83;20155;-62
2022/07/16 01:04:54;;;;;;;;;;;;;;;23.81;69.13;153642.97;1709563;84;20221;-63
2022/07/16 01:07:22;;;;;;;;;;;;;;;23.73;69.09;153623.31;1709543;83;20185;-61
2022/07/16 01:09:49;;;;;;;;;;;;;;;23.65;69.54;153602.39;1709801;84;20201;-62
2022/07/16 01:12:18;;;;;;;;;;;;;;;23.56;70.25;153578.86;1742493;82;21229;-62
2022/07/16 01:14:45;;;;;;;;;;;;;;;23.46;70.75;153553.98;1714175;82;20467;-63
2022/07/16 01:17:11;;;;;;;;;;;;;;;23.39;71.38;153536.97;1729123;83;20180;-62
2022/07/16 01:19:38;;;;;;;;;;;;;;;23.32;72.09;153518.61;1727059;83;20395;-63
2022/07/16 01:22:05;;;;;;;;;;;;;;;23.21;72.91;153491.13;1726692;83;20180;-63
2022/07/16 01:24:32;;;;;;;;;;;;;;;23.11;73.06;153464.92;1726818;83;21751;-61
2022/07/16 01:27:00;;;;;;;;;;;;;;;23.06;73.17;153453.13;1726637;83;20195;-62
2022/07/16 01:29:29;;;;;;;;;;;;;;;23.07;73.03;153455.75;1726890;83;20104;-62
2022/07/16 01:31:56;;;;;;;;;;;;;;;23.09;72.80;153460.98;1718192;81;20181;-62
2022/07/16 01:34:26;;;;;;;;;;;;;;;23.14;72.14;153474.11;1704389;84;20233;-62
2022/07/16 01:36:58;;;;;;;;;;;;;;;23.20;71.38;153487.17;1704204;84;20644;-62
2022/07/16 01:39:25;;;;;;;;;;;;;;;23.24;70.59;153497.64;1704220;84;20181;-63
2022/07/16 01:41:53;;;;;;;;;;;;;;;23.28;69.79;153508.14;1704561;84;20179;-62
2022/07/16 01:44:20;;;;;;;;;;;;;;;23.34;68.89;153523.88;1704214;84;20181;-63
2022/07/16 01:46:47;;;;;;;;;;;;;;;23.39;67.82;153536.97;1704500;84;20185;-63
2022/07/16 01:49:14;;;;;;;;;;;;;;;23.38;66.51;153534.34;1704013;84;22136;-63
2022/07/16 01:51:40;;;;;;;;;;;;;;;23.34;65.93;153523.88;1704618;84;20173;-63
2022/07/16 01:54:07;;;;;;;;;;;;;;;23.29;65.47;153510.77;1704165;84;20201;-63
2022/07/16 01:56:34;;;;;;;;;;;;;;;23.25;65.57;153500.25;1704379;84;20126;-63
2022/07/16 01:59:00;;;;;;;;;;;;;;;23.12;65.88;153468.88;1704316;84;20189;-63
2022/07/16 02:01:27;;;;;;;;;;;;;;;22.93;66.55;153419.14;1704291;84;21133;-62
2022/07/16 02:03:56;;;;;;;;;;;;;;;22.77;67.19;153378.55;1704196;84;20181;-63
2022/07/16 02:06:22;;;;;;;;;;;;;;;22.65;67.89;153349.80;1704148;83;20313;-62
2022/07/16 02:08:49;;;;;;;;;;;;;;;22.60;67.78;153338.00;1704435;84;20136;-62
2022/07/16 02:11:17;;;;;;;;;;;;;;;22.57;67.75;153330.16;1712392;83;20205;-63
2022/07/16 02:13:45;;;;;;;;;;;;;;;22.58;67.43;153332.78;1719178;83;21830;-63
2022/07/16 02:16:12;;;;;;;;;;;;;;;22.59;67.35;153335.39;1718869;83;20208;-62
2022/07/16 02:18:39;;;;;;;;;;;;;;;22.64;67.12;153345.84;1708969;83;20178;-62
2022/07/16 02:21:06;;;;;;;;;;;;;;;22.71;66.90;153365.47;1704041;83;20513;-62
2022/07/16 02:23:33;;;;;;;;;;;;;;;22.76;66.81;153377.27;1704457;84;20403;-63
2022/07/16 02:25:59;;;;;;;;;;;;;;;22.76;67.00;153377.27;1704100;84;20737;-62
2022/07/16 02:28:26;;;;;;;;;;;;;;;22.78;67.09;153382.50;1704139;83;20205;-62
2022/07/16 02:30:53;;;;;;;;;;;;;;;22.79;67.26;153383.83;1704173;84;20229;-63
2022/07/16 02:33:20;;;;;;;;;;;;;;;22.77;67.44;153379.88;1720672;83;20204;-63
2022/07/16 02:35:47;;;;;;;;;;;;;;;22.72;67.87;153366.81;1724746;83;20212;-63
2022/07/16 02:38:15;;;;;;;;;;;;;;;22.68;68.28;153356.34;1724399;83;21216;-62
2022/07/16 02:40:43;;;;;;;;;;;;;;;22.61;68.97;153340.63;1724095;83;20232;-62
2022/07/16 02:43:10;;;;;;;;;;;;;;;22.56;69.59;153327.55;1724469;83;20224;-62
2022/07/16 02:45:37;;;;;;;;;;;;;;;22.48;70.04;153306.64;1724890;83;20449;-63
2022/07/16 02:48:05;;;;;;;;;;;;;;;22.40;70.67;153286.97;1724588;83;20177;-62
2022/07/16 02:50:32;;;;;;;;;;;;;;;22.31;71.28;153263.39;1724804;83;21286;-62
2022/07/16 02:52:59;;;;;;;;;;;;;;;22.29;71.89;153258.16;1724611;83;20513;-62
2022/07/16 02:55:26;;;;;;;;;;;;;;;22.29;72.21;153259.50;1724547;83;20176;-62
2022/07/16 02:57:53;;;;;;;;;;;;;;;22.20;72.46;153235.92;1724586;83;20172;-62
2022/07/16 03:00:19;;;;;;;;;;;;;;;22.10;72.89;153209.80;1724672;83;20501;-62
2022/07/16 03:02:46;;;;;;;;;;;;;;;22.03;73.31;153192.78;1724609;83;22110;-61
2022/07/16 03:05:13;;;;;;;;;;;;;;;21.95;73.61;153173.16;1724573;83;20165;-61
2022/07/16 03:07:40;;;;;;;;;;;;;;;21.93;74.00;153167.94;1724608;83;20453;-61
2022/07/16 03:10:08;;;;;;;;;;;;;;;21.96;74.06;153174.50;1725053;83;20226;-62
2022/07/16 03:12:36;;;;;;;;;;;;;;;21.97;74.31;153178.39;1732313;83;20187;-62
2022/07/16 03:15:04;;;;;;;;;;;;;;;21.97;74.55;153178.39;1732102;83;21313;-62
2022/07/16 03:17:31;;;;;;;;;;;;;;;21.95;74.64;153173.16;1731063;83;20413;-61
2022/07/16 03:19:58;;;;;;;;;;;;;;;21.95;74.94;153173.16;1724999;83;20179;-61
2022/07/16 03:22:24;;;;;;;;;;;;;;;21.98;74.98;153179.72;1724525;83;20226;-62
2022/07/16 03:24:51;;;;;;;;;;;;;;;21.98;74.81;153181.00;1724823;83;20200;-61
2022/07/16 03:27:18;;;;;;;;;;;;;;;22.00;74.89;153184.94;1724671;83;21180;-61
2022/07/16 03:29:45;;;;;;;;;;;;;;;21.99;74.95;153183.61;1724830;83;20461;-61
2022/07/16 03:32:12;;;;;;;;;;;;;;;22.06;75.20;153199.34;1720355;83;20157;-62
2022/07/16 03:34:39;;;;;;;;;;;;;;;22.12;75.10;153216.34;1704841;84;20169;-61
2022/07/16 03:37:06;;;;;;;;;;;;;;;22.21;75.02;153238.53;1703964;83;20498;-61
2022/07/16 03:39:33;;;;;;;;;;;;;;;22.24;75.00;153245.09;1704425;84;22048;-62
2022/07/16 03:42:00;;;;;;;;;;;;;;;22.33;74.90;153269.95;1704521;84;20454;-61
2022/07/16 03:44:26;;;;;;;;;;;;;;;22.48;74.38;153306.64;1704415;84;20170;-61
2022/07/16 03:46:53;;;;;;;;;;;;;;;22.57;73.67;153330.16;1704314;84;20205;-61
2022/07/16 03:49:20;;;;;;;;;;;;;;;22.64;73.30;153347.19;1704187;84;20173;-62
2022/07/16 03:51:47;;;;;;;;;;;;;;;22.73;73.03;153369.42;1704304;84;21265;-62
2022/07/16 03:54:13;;;;;;;;;;;;;;;22.85;72.58;153400.80;1704241;84;20469;-61
2022/07/16 03:56:41;;;;;;;;;;;;;;;22.98;72.02;153432.22;1704237;84;20193;-61
2022/07/16 03:59:10;;;;;;;;;;;;;;;23.09;71.56;153460.98;1704045;84;20196;-62
2022/07/16 04:01:36;;;;;;;;;;;;;;;23.21;71.43;153491.13;1704289;84;20982;-61
2022/07/16 04:04:04;;;;;;;;;;;;;;;23.35;70.70;153526.50;1704026;84;21235;-62
2022/07/16 04:06:31;;;;;;;;;;;;;;;23.43;70.36;153547.42;1704574;84;20086;-62
2022/07/16 04:08:58;;;;;;;;;;;;;;;23.54;70.17;153574.91;1704435;84;20192;-62
2022/07/16 04:11:25;;;;;;;;;;;;;;;23.71;69.72;153618.09;1679778;84;20473;-62
2022/07/16 04:13:52;;;;;;;;;;;;;;;23.89;68.89;153662.61;1664123;86;20175;-62
2022/07/16 04:16:19;;;;;;;;;;;;;;;23.98;68.41;153684.88;1663757;86;21053;-60
2022/07/16 04:18:46;;;;;;;;;;;;;;;24.07;68.11;153707.19;1704511;83;20551;-61
2022/07/16 04:21:14;;;;;;;;;;;;;;;24.17;67.68;153733.34;1718905;83;20213;-61
2022/07/16 04:23:41;;;;;;;;;;;;;;;24.27;67.29;153758.22;1719711;83;20132;-62
2022/07/16 04:26:07;;;;;;;;;;;;;;;24.39;67.00;153788.34;1719026;83;20492;-62
2022/07/16 04:28:34;;;;;;;;;;;;;;;24.50;66.35;153817.17;1719252;83;21885;-63
2022/07/16 04:31:02;;;;;;;;;;;;;;;24.54;66.18;153827.64;1718908;83;20144;-62
2022/07/16 04:33:29;;;;;;;;;;;;;;;24.65;66.35;153853.81;1726761;83;20145;-62
2022/07/16 04:35:56;;;;;;;;;;;;;;;24.64;66.00;153851.19;1731928;82;20436;-62
2022/07/16 04:38:22;;;;;;;;;;;;;;;24.51;66.33;153819.78;1731884;83;20175;-62
2022/07/16 04:40:49;;;;;;;;;;;;;;;24.36;66.87;153780.50;1732086;83;21482;-62
2022/07/16 04:43:16;;;;;;;;;;;;;;;24.21;67.68;153743.86;1731943;83;20180;-62
2022/07/16 04:45:43;;;;;;;;;;;;;;;24.11;68.27;153717.64;1731976;83;20204;-62
2022/07/16 04:48:10;;;;;;;;;;;;;;;24.00;68.76;153691.44;1731755;83;20223;-63
2022/07/16 04:50:36;;;;;;;;;;;;;;;23.98;69.24;153686.16;1732128;82;20490;-63
2022/07/16 04:53:03;;;;;;;;;;;;;;;23.96;69.51;153680.92;1731968;83;22549;-63
2022/07/16 04:55:30;;;;;;;;;;;;;;;23.95;69.71;153678.31;1732087;83;20180;-63
2022/07/16 04:57:57;;;;;;;;;;;;;;;24.03;69.26;153699.33;1732005;83;20168;-63
2022/07/16 05:00:26;;;;;;;;;;;;;;;24.13;68.72;153724.22;1731796;83;20188;-63
2022/07/16 05:02:59;;;;;;;;;;;;;;;24.25;68.49;153754.33;1732250;83;20176;-63
2022/07/16 05:05:28;;;;;;;;;;;;;;;24.42;68.07;153796.19;1732046;83;21238;-63
2022/07/16 05:07:55;;;;;;;;;;;;;;;24.61;67.50;153845.95;1730410;83;20179;-63
2022/07/16 05:10:24;;;;;;;;;;;;;;;24.89;66.79;153915.44;1727702;83;20176;-63
2022/07/16 05:12:52;;;;;;;;;;;;;;;25.09;65.69;153966.56;1707375;84;20246;-63
2022/07/16 05:15:20;;;;;;;;;;;;;;;25.24;65.06;154003.22;1707474;84;20144;-63
2022/07/16 05:17:46;;;;;;;;;;;;;;;25.38;64.30;154038.58;1694556;83;21862;-63
2022/07/16 05:20:13;;;;;;;;;;;;;;;25.48;63.32;154063.53;1666678;86;20171;-62
2022/07/16 05:22:40;;;;;;;;;;;;;;;25.58;62.57;154089.77;1666770;86;20207;-62
2022/07/16 05:25:09;;;;;;;;;;;;;;;25.73;61.90;154129.05;1666542;86;20138;-62
2022/07/16 05:27:37;;;;;;;;;;;;;;;25.87;61.17;154163.14;1666595;86;20510;-62
2022/07/16 05:30:05;;;;;;;;;;;;;;;26.04;60.54;154206.38;1667356;85;21087;-64
2022/07/16 05:32:32;;;;;;;;;;;;;;;26.19;59.91;154244.44;1669568;84;20152;-62
2022/07/16 05:34:59;;;;;;;;;;;;;;;26.28;59.22;154268.06;1711761;84;20189;-61
2022/07/16 05:37:25;;;;;;;;;;;;;;;26.25;59.10;154260.20;1711574;83;20168;-61
2022/07/16 05:39:52;;;;;;;;;;;;;;;26.25;59.23;154260.20;1711543;84;20200;-62
2022/07/16 05:42:19;;;;;;;;;;;;;;;26.26;59.13;154262.81;1711563;84;21140;-62
2022/07/16 05:44:45;;;;;;;;;;;;;;;26.25;58.77;154258.86;1711483;83;20469;-63
2022/07/16 05:47:13;;;;;;;;;;;;;;;26.26;58.61;154262.81;1711566;84;20172;-62
2022/07/16 05:49:39;;;;;;;;;;;;;;;26.20;58.33;154247.09;1711440;83;20177;-62
2022/07/16 05:52:06;;;;;;;;;;;;;;;26.17;58.65;154239.19;1711363;84;20228;-62
2022/07/16 05:54:33;;;;;;;;;;;;;;;26.12;58.35;154227.38;1711514;83;21243;-63
2022/07/16 05:57:00;;;;;;;;;;;;;;;26.08;58.62;154215.56;1711467;84;20184;-62
2022/07/16 05:59:27;;;;;;;;;;;;;;;26.05;58.77;154207.72;1711620;83;20138;-62
2022/07/16 06:01:54;;;;;;;;;;;;;;;26.02;59.08;154202.47;1711568;84;20173;-63
2022/07/16 06:04:21;;;;;;;;;;;;;;;25.98;59.21;154192.00;1711656;83;20647;-61
2022/07/16 06:06:48;;;;;;;;;;;;;;;26.06;59.20;154210.33;1711670;84;21983;-62
2022/07/16 06:09:16;;;;;;;;;;;;;;;26.10;59.11;154220.81;1711503;83;20972;-62
2022/07/16 06:11:46;;;;;;;;;;;;;;;26.19;58.71;154244.44;1724935;83;20194;-61
2022/07/16 06:14:12;;;;;;;;;;;;;;;26.23;58.74;154254.95;1729706;83;20199;-61
2022/07/16 06:16:40;;;;;;;;;;;;;;;26.33;58.44;154279.88;1729439;83;20499;-61
2022/07/16 06:19:07;;;;;;;;;;;;;;;26.45;58.05;154310.02;1726451;83;21137;-62
2022/07/16 06:21:34;;;;;;;;;;;;;;;26.54;57.93;154333.59;1726513;83;20169;-62
2022/07/16 06:24:01;;;;;;;;;;;;;;;26.62;57.87;154351.94;1726436;83;20128;-62
2022/07/16 06:26:28;;;;;;;;;;;;;;;26.70;57.71;154372.95;1726476;83;20168;-62
2022/07/16 06:28:56;;;;;;;;;;;;;;;26.69;57.76;154370.33;1726192;83;20196;-62
2022/07/16 06:31:23;;;;;;;;;;;;;;;26.70;58.03;154372.95;1726224;83;21257;-62
2022/07/16 06:33:49;;;;;;;;;;;;;;;26.71;58.31;154375.56;1726048;83;20437;-62
2022/07/16 06:36:16;;;;;;;;;;;;;;;26.74;58.41;154384.72;1726307;83;20177;-61
2022/07/16 06:38:43;;;;;;;;;;;;;;;26.78;58.29;154393.91;1726194;83;20188;-62
2022/07/16 06:41:10;;;;;;;;;;;;;;;26.78;58.44;154393.91;1726394;83;20203;-61
2022/07/16 06:43:36;;;;;;;;;;;;;;;26.78;58.52;154393.91;1726508;83;21252;-61
2022/07/16 06:46:03;;;;;;;;;;;;;;;26.79;58.82;154395.25;1726326;83;20185;-62
2022/07/16 06:48:30;;;;;;;;;;;;;;;26.82;58.68;154404.39;1726289;83;20145;-62
2022/07/16 06:50:56;;;;;;;;;;;;;;;26.89;58.71;154421.50;1726241;83;20725;-62
2022/07/16 06:53:23;;;;;;;;;;;;;;;26.93;58.43;154431.98;1726227;83;20173;-62
2022/07/16 06:55:50;;;;;;;;;;;;;;;26.92;58.14;154428.08;1726320;83;21369;-62
2022/07/16 06:58:17;;;;;;;;;;;;;;;26.80;58.35;154399.16;1726419;83;20429;-62
2022/07/16 07:00:44;;;;;;;;;;;;;;;26.76;58.52;154388.67;1726411;83;20180;-63
2022/07/16 07:03:11;;;;;;;;;;;;;;;26.71;58.70;154375.56;1726258;83;20928;-62
2022/07/16 07:05:39;;;;;;;;;;;;;;;26.58;58.74;154344.08;1726406;83;20606;-63
2022/07/16 07:08:06;;;;;;;;;;;;;;;26.44;59.30;154308.69;1726163;83;21239;-63
2022/07/16 07:10:35;;;;;;;;;;;;;;;26.38;59.71;154291.63;1726012;83;20166;-63
2022/07/16 07:13:02;;;;;;;;;;;;;;;26.32;59.98;154277.25;1726747;83;20413;-63
2022/07/16 07:15:29;;;;;;;;;;;;;;;26.26;60.03;154262.81;1726683;83;20097;-63
2022/07/16 07:17:56;;;;;;;;;;;;;;;26.25;59.62;154258.86;1721224;83;20180;-63
2022/07/16 07:20:22;;;;;;;;;;;;;;;26.20;59.26;154245.77;1711943;84;20659;-62
2022/07/16 07:22:50;;;;;;;;;;;;;;;26.14;58.73;154231.28;1711906;82;20219;-62
2022/07/16 07:25:17;;;;;;;;;;;;;;;26.10;58.69;154220.81;1711867;83;20225;-63
2022/07/16 07:27:43;;;;;;;;;;;;;;;26.07;58.35;154212.95;1711916;82;20211;-63
2022/07/16 07:30:13;;;;;;;;;;;;;;;26.11;58.29;154224.75;1711593;83;20220;-64
2022/07/16 07:32:40;;;;;;;;;;;;;;;26.15;58.52;154233.91;1711836;84;21246;-63
2022/07/16 07:35:07;;;;;;;;;;;;;;;26.23;58.58;154254.95;1716538;82;20133;-63
2022/07/16 07:37:34;;;;;;;;;;;;;;;26.34;58.42;154281.16;1717895;83;20117;-63
2022/07/16 07:40:04;;;;;;;;;;;;;;;26.42;57.45;154302.16;1717293;83;20140;-63
2022/07/16 07:42:30;;;;;;;;;;;;;;;26.43;57.74;154304.78;1717403;83;20141;-63
2022/07/16 07:44:57;;;;;;;;;;;;;;;26.52;57.98;154328.36;1717261;83;21230;-62
2022/07/16 07:47:24;;;;;;;;;;;;;;;26.62;57.95;154351.94;1717255;83;20169;-62
2022/07/16 07:49:51;;;;;;;;;;;;;;;26.67;57.90;154366.38;1717332;83;20173;-62
2022/07/16 07:52:17;;;;;;;;;;;;;;;26.74;57.98;154383.44;1717461;83;20176;-62
2022/07/16 07:54:44;;;;;;;;;;;;;;;26.68;58.49;154367.70;1717494;83;20482;-63
2022/07/16 07:57:11;;;;;;;;;;;;;;;26.68;58.66;154367.70;1717563;83;20671;-62
2022/07/16 07:59:38;;;;;;;;;;;;;;;26.72;59.05;154378.19;1717246;83;20432;-62
2022/07/16 08:02:05;;;;;;;;;;;;;;;26.80;59.00;154399.16;1717624;83;20434;-62
2022/07/16 08:04:35;;;;;;;;;;;;;;;26.90;59.00;154422.83;1717634;83;20150;-62
2022/07/16 08:07:02;;;;;;;;;;;;;;;26.98;59.01;154445.14;1717643;83;20421;-62
2022/07/16 08:09:29;;;;;;;;;;;;;;;27.10;58.38;154473.97;1717611;83;21117;-62
2022/07/16 08:11:56;;;;;;;;;;;;;;;27.20;58.19;154498.88;1709933;83;20162;-63
2022/07/16 08:14:23;;;;;;;;;;;;;;;27.28;57.72;154521.19;1707957;84;20173;-63
2022/07/16 08:16:49;;;;;;;;;;;;;;;27.34;57.79;154535.63;1759363;81;20216;-63
2022/07/16 08:19:16;;;;;;;;;;;;;;;27.46;57.72;154565.80;1758638;80;20168;-63
2022/07/16 08:21:43;;;;;;;;;;;;;;;27.58;57.02;154597.30;1758923;81;21239;-63
2022/07/16 08:26:55;;;;;;;;;;;;;;;27.77;56.39;154644.55;1758823;81;20166;-63
2022/07/16 08:29:21;;;;;;;;;;;;;;;27.89;55.70;154674.72;1758701;81;20460;-63
2022/07/16 08:31:48;;;;;;;;;;;;;;;27.97;54.91;154694.41;1759110;81;20436;-63
2022/07/16 08:34:16;;;;;;;;;;;;;;;28.06;54.50;154716.72;1763024;81;21118;-63
2022/07/16 08:36:44;;;;;;;;;;;;;;;28.15;54.50;154740.31;1782012;80;20510;-63
2022/07/16 08:39:11;;;;;;;;;;;;;;;28.25;54.42;154766.64;1779395;80;20195;-62
2022/07/16 08:41:38;;;;;;;;;;;;;;;28.36;54.04;154792.88;1771483;81;20454;-62
2022/07/16 08:44:05;;;;;;;;;;;;;;;28.43;53.56;154812.56;1771574;81;20157;-63
2022/07/16 08:46:32;;;;;;;;;;;;;;;28.52;52.92;154834.88;1749978;81;22300;-63
2022/07/16 08:48:59;;;;;;;;;;;;;;;28.53;53.07;154837.50;1771444;81;20165;-63
2022/07/16 08:51:31;;;;;;;;;;;;;;;28.56;53.10;154844.08;1771415;81;20631;-63
2022/07/16 08:54:01;;;;;;;;;;;;;;;28.52;52.97;154834.88;1771687;81;20176;-63
2022/07/16 08:56:28;;;;;;;;;;;;;;;28.46;52.69;154819.14;1759432;80;20192;-63
2022/07/16 08:58:55;;;;;;;;;;;;;;;28.47;53.22;154821.77;1771594;81;21240;-62
2022/07/16 09:01:25;;;;;;;;;;;;;;;28.48;53.75;154824.39;1771505;81;20539;-62
2022/07/16 09:03:50;;;;;;;;;;;;;;;28.49;54.00;154825.67;1771289;81;20200;-62
2022/07/16 09:06:18;;;;;;;;;;;;;;;28.46;54.07;154819.14;1770952;81;20176;-62
2022/07/16 09:08:45;;;;;;;;;;;;;;;28.43;54.30;154811.28;1749850;81;20538;-63
2022/07/16 09:11:20;;;;;;;;;;;;;;;28.43;54.35;154811.28;1738580;81;20122;-62
2022/07/16 09:14:18;;;;;;;;;;;;;;;28.48;53.94;154823.05;1710192;83;20122;-63
2022/07/16 09:16:50;;;;;;;;;;;;;;;28.50;53.27;154828.30;1709707;84;20191;-63
2022/07/16 09:19:20;;;;;;;;;;;;;;;28.55;53.04;154842.75;1767839;81;20204;-65
2022/07/16 09:22:11;;;;;;;;;;;;;;;28.65;52.59;154866.41;1771775;81;20120;-63
2022/07/16 09:24:46;;;;;;;;;;;;;;;28.72;52.42;154886.05;1771471;81;21127;-63
2022/07/16 09:27:20;;;;;;;;;;;;;;;28.77;52.11;154896.59;1771111;81;20200;-63
2022/07/16 09:29:58;;;;;;;;;;;;;;;28.82;51.92;154911.05;1771648;81;20116;-62
2022/07/16 09:32:30;;;;;;;;;;;;;;;28.90;51.40;154929.45;1771331;81;20136;-65
2022/07/16 09:35:10;;;;;;;;;;;;;;;28.93;50.44;154937.33;1775858;80;20147;-66
2022/07/16 09:37:55;;;;;;;;;;;;;;;28.96;50.61;154945.19;1779594;80;21146;-66
2022/07/16 09:40:45;;;;;;;;;;;;;;;29.03;50.66;154963.56;1793391;80;20131;-66
2022/07/16 09:43:15;;;;;;;;;;;;;;;29.13;49.58;154989.84;1793638;80;20203;-62
2022/07/16 09:45:44;;;;;;;;;;;;;;;29.18;48.89;155001.67;1793701;80;20139;-62
2022/07/16 09:48:22;;;;;;;;;;;;;;;29.22;48.30;155010.84;1793715;79;20460;-62
2022/07/16 09:50:50;;;;;;;;;;;;;;;29.26;48.31;155021.33;1793574;79;21754;-62
2022/07/16 09:53:18;;;;;;;;;;;;;;;29.24;48.10;155016.08;1793450;79;20213;-65
2022/07/16 09:55:59;;;;;;;;;;;;;;;29.20;48.79;155005.59;1793941;79;20227;-66
2022/07/16 09:58:26;;;;;;;;;;;;;;;29.20;49.57;155006.92;1793500;80;20167;-66
2022/07/16 10:00:53;;;;;;;;;;;;;;;29.21;50.44;155008.22;1793565;79;20420;-65
2022/07/16 10:03:20;;;;;;;;;;;;;;;29.16;50.99;154997.72;1793477;79;21132;-65
2022/07/16 10:05:47;;;;;;;;;;;;;;;29.10;51.15;154981.97;1793970;79;20194;-66
2022/07/16 10:08:14;;;;;;;;;;;;;;;28.99;51.81;154954.41;1793477;79;20159;-66
2022/07/16 10:10:43;;;;;;;;;;;;;;;28.94;51.64;154939.95;1783427;80;20192;-65
2022/07/16 10:13:11;;;;;;;;;;;;;;;28.91;50.85;154932.08;1758993;81;20153;-65
2022/07/16 10:15:38;;;;;;;;;;;;;;;28.94;51.23;154941.23;1758458;81;21213;-65
2022/07/16 10:18:25;;;;;;;;;;;;;;;29.03;50.88;154963.56;1751496;81;20439;-65
2022/07/16 10:21:20;;;;;;;;;;;;;;;29.09;51.60;154978.02;1742519;81;20166;-65
2022/07/16 10:23:49;;;;;;;;;;;;;;;29.18;52.26;155000.34;1727530;82;20183;-65
2022/07/16 10:26:18;;;;;;;;;;;;;;;29.23;52.20;155013.47;1742667;82;20194;-65
2022/07/16 10:28:51;;;;;;;;;;;;;;;29.28;52.11;155026.58;1742264;82;21145;-65
2022/07/16 10:31:39;;;;;;;;;;;;;;;29.34;51.70;155042.38;1742068;82;20178;-68
2022/07/16 10:34:35;;;;;;;;;;;;;;;29.44;51.54;155068.66;1742204;81;20158;-66
2022/07/16 10:37:02;;;;;;;;;;;;;;;29.52;51.99;155087.08;1734686;82;20469;-62
2022/07/16 10:39:29;;;;;;;;;;;;;;;29.53;52.11;155089.70;1734661;82;20199;-62
2022/07/16 10:41:59;;;;;;;;;;;;;;;29.45;52.17;155071.28;1734561;82;21231;-62
2022/07/16 10:44:46;;;;;;;;;;;;;;;29.41;51.64;155059.50;1734520;82;20178;-62
2022/07/16 10:47:13;;;;;;;;;;;;;;;29.39;51.15;155055.50;1734805;82;20171;-62
2022/07/16 10:49:40;;;;;;;;;;;;;;;29.30;51.95;155033.16;1734772;82;20428;-63
2022/07/16 10:52:09;;;;;;;;;;;;;;;29.28;52.39;155027.92;1734558;82;20179;-62
2022/07/16 10:54:39;;;;;;;;;;;;;;;29.25;52.23;155018.70;1734529;82;21122;-63
2022/07/16 10:57:09;;;;;;;;;;;;;;;29.20;52.65;155005.59;1733921;82;20179;-62
2022/07/16 10:59:38;;;;;;;;;;;;;;;29.15;53.02;154995.09;1734526;82;20142;-62
2022/07/16 11:02:10;;;;;;;;;;;;;;;29.09;53.28;154979.34;1734584;82;20183;-62
2022/07/16 11:04:41;;;;;;;;;;;;;;;29.05;53.84;154968.81;1734547;82;20212;-62
2022/07/16 11:07:19;;;;;;;;;;;;;;;28.99;54.07;154953.06;1734532;82;21166;-64
2022/07/16 11:09:52;;;;;;;;;;;;;;;28.96;53.94;154945.19;1734062;82;20246;-65
2022/07/16 11:12:22;;;;;;;;;;;;;;;28.88;52.40;154926.84;1733754;82;20206;-66
2022/07/16 11:14:57;;;;;;;;;;;;;;;28.82;52.94;154909.75;1733874;82;20737;-65
2022/07/16 11:17:27;;;;;;;;;;;;;;;28.81;52.83;154908.42;1736478;82;20198;-65
2022/07/16 11:19:56;;;;;;;;;;;;;;;28.82;51.97;154911.05;1749921;81;21155;-64
2022/07/16 11:22:26;;;;;;;;;;;;;;;28.80;52.25;154905.80;1749098;82;20135;-66
2022/07/16 11:24:53;;;;;;;;;;;;;;;28.78;51.12;154900.50;1750626;82;20435;-67
2022/07/16 11:27:25;;;;;;;;;;;;;;;28.75;50.62;154892.62;1750106;82;20174;-67
2022/07/16 11:29:56;;;;;;;;;;;;;;;28.69;50.69;154876.89;1749976;79;20146;-66
2022/07/16 11:32:23;;;;;;;;;;;;;;;28.59;51.13;154851.95;1750112;82;21811;-65
2022/07/16 11:34:50;;;;;;;;;;;;;;;28.57;51.54;154846.70;1748962;81;20580;-65
2022/07/16 11:37:17;;;;;;;;;;;;;;;28.54;51.41;154840.13;1744991;82;20206;-65
2022/07/16 11:39:43;;;;;;;;;;;;;;;28.52;52.00;154834.88;1745421;81;20127;-66
2022/07/16 11:42:10;;;;;;;;;;;;;;;28.50;51.85;154828.30;1745311;82;20194;-66
2022/07/16 11:44:39;;;;;;;;;;;;;;;28.44;52.20;154815.19;1745133;81;21228;-66
2022/07/16 11:47:07;;;;;;;;;;;;;;;28.39;51.97;154800.73;1745651;82;20158;-66
2022/07/16 11:49:37;;;;;;;;;;;;;;;28.33;52.85;154785.00;1745093;82;20131;-66
2022/07/16 11:52:09;;;;;;;;;;;;;;;28.33;52.89;154786.34;1745134;81;20174;-66
2022/07/16 11:54:37;;;;;;;;;;;;;;;28.36;53.00;154794.20;1745161;81;20154;-66
2022/07/16 11:57:03;;;;;;;;;;;;;;;28.43;53.12;154811.28;1745365;81;21228;-67
2022/07/16 11:59:32;;;;;;;;;;;;;;;28.49;52.28;154827.00;1745347;81;20172;-65
2022/07/16 12:02:05;;;;;;;;;;;;;;;28.52;52.54;154834.88;1745077;81;20193;-65
2022/07/16 12:04:41;;;;;;;;;;;;;;;28.46;52.40;154819.14;1745207;82;20503;-65
2022/07/16 12:07:16;;;;;;;;;;;;;;;28.41;52.54;154806.03;1745419;81;20546;-65
2022/07/16 12:09:44;;;;;;;;;;;;;;;28.38;52.60;154798.11;1744471;81;21256;-65
2022/07/16 12:12:16;;;;;;;;;;;;;;;28.37;52.75;154795.48;1702294;82;20167;-65
2022/07/16 12:14:51;;;;;;;;;;;;;;;28.37;53.24;154795.48;1698099;84;20197;-65
2022/07/16 12:17:23;;;;;;;;;;;;;;;28.37;53.12;154795.48;1703730;82;20510;-65
2022/07/16 12:20:12;;;;;;;;;;;;;;;28.35;52.97;154790.25;1743139;82;20146;-65
2022/07/16 12:22:44;;;;;;;;;;;;;;;28.34;52.84;154787.62;1742674;82;21134;-65
2022/07/16 12:25:32;;;;;;;;;;;;;;;28.37;52.90;154795.48;1742970;82;20170;-66
2022/07/16 12:28:09;;;;;;;;;;;;;;;28.37;52.56;154795.48;1741713;81;20458;-65
2022/07/16 12:30:40;;;;;;;;;;;;;;;28.39;53.11;154800.73;1742682;82;21772;-66
2022/07/16 12:33:22;;;;;;;;;;;;;;;28.40;52.98;154803.36;1743238;82;20126;-65
2022/07/16 12:36:00;;;;;;;;;;;;;;;28.42;53.14;154808.66;1738210;81;21237;-66
2022/07/16 12:38:50;;;;;;;;;;;;;;;28.41;52.76;154806.03;1731786;83;20462;-65
2022/07/16 12:41:23;;;;;;;;;;;;;;;28.37;51.98;154795.48;1731723;82;20179;-65
2022/07/16 12:43:58;;;;;;;;;;;;;;;28.33;51.90;154785.00;1731788;82;20179;-66
2022/07/16 12:46:27;;;;;;;;;;;;;;;28.30;52.04;154778.47;1731224;82;20171;-65
2022/07/16 12:49:05;;;;;;;;;;;;;;;28.29;51.57;154775.80;1731986;82;21225;-65
2022/07/16 12:51:34;;;;;;;;;;;;;;;28.30;51.07;154779.75;1731715;83;20191;-65